Airfield :
LOGIN :

Register | Disclaimer

   EN    FR    IT 

 










Legend :    VFR   Marginal VFR   IFR   Intensive IFR   Very Intensive IFR
Visi :
Ceiling :
>= 8 km
>= 3000ft
5 to 8 km
1000 to 3000 ft
1500m to 5 km
500 to 1000 ft
800 to 1500m
200 to 500 ft
< 800m
< 200 ft
Symbols :   Thunderstorms  Fog  Heavy snow  Heavy precipitations  Wind > 20 kt
SIGMETs :     Misc.  Thunderstorms  Icing  Turbulence  Mountain Waves  Volcanic Ashes






- Airport Elevation : 499 ft
- IATA code : TLS


LFBO - Toulouse / Blagnac

CURRENT METAR :
  • 271300Z AUTO 11017KT 9999 FEW022 SCT200 16/11 Q1012 TEMPO 14016G28KT

EXPIRED METARs :
  • 271230Z AUTO 11014KT 9999 BKN023 BKN160 BKN190 16/11 Q1013 TEMPO 14016G28KT
  • 271200Z AUTO 12018KT 9999 BKN022 OVC170 15/11 Q1013 TEMPO 14016G28KT
  • 271130Z AUTO 12013KT 090V160 9999 OVC021 16/11 Q1014 BECMG 14015G28KT
  • 271100Z AUTO 12018KT 9999 OVC022 15/11 Q1014 BECMG 14015G28KT
  • 271030Z AUTO 13015KT 9999 BKN021 BKN026 16/11 Q1014 BECMG 14015G28KT

TAF TAF LFBO
Valid from the 27 at 12:00 until the 28 at 18:00 UTC


271100Z 2712/2818 14016KT 9999 FEW025
PROB40
TEMPO 2712/2716 14016G28KT
BECMG 2722/2724 14008KT
TEMPO 2800/2806 BKN013
ATIS : +33 5 62 74 66 36



MET'MAP, your aeronautical weather chart ! - Copyright ORBIFLY December 2007 - Disclaimer

ORBIFLY MET'MAP TEAM :

Programming & Development : Alexandra Zaïnal
Concept & original design : Baudouin d'Aumeries
Assistance for programming : Marc-Olivier Méhu
Technical & hardware support : Manuel Goepfert

Contact : metmap@orbifly.com




SOURCES & CREDITS :

   NOAA